Terminal Aerodrome Forecast
Issued by NWS Albany, NY

Home | Current Version | Previous Version | Text Only | Print | Product List | Glossary On
Versions: 1 2 3 4 5 6 7 8 9 10 11 12 13 14 15 16 17 18 19 20 21 22 23 24 25 26 27 28 29 30 31 32 33 34 35 36
311
FTUS41 KALY 041738
TAFALB
TAF
KALB 041738Z 0418/0518 12006KT 6SM -RA SCT008 OVC015
      TEMPO 0418/0422 3SM -RA BR BKN008 OVC015
     FM042300 07005KT P6SM VCSH SCT010 OVC020
     FM050400 03005KT 3SM -DZ BR SCT005 OVC010
     FM051300 01007KT P6SM OVC025
     FM051600 02007KT P6SM OVC035=

USA.gov is the U.S. government's official web portal to all federal, state and local government web resources and services.